Key Lake Airport
CYKJ : now visible

Airfield :











YOU CAN JOIN US ON...

 
LOGIN :

Register | Disclaimer

   EN    FR    IT 

 









Legend :    VFR   Marginal VFR   IFR   Intensive IFR   Very Intensive IFR
Visi :
Ceiling :
>= 8 km
>= 3000ft
5 to 8 km
1000 to 3000 ft
1500m to 5 km
500 to 1000 ft
800 to 1500m
200 to 500 ft
< 800m
< 200 ft
Symbols :   Thunderstorms  Fog  Heavy snow  Heavy precipitations  Wind > 20 kt







- Airport Elevation : 1679 ft
- IATA code : YKJ


CYKJ - Key Lake

CURRENT METAR :
  • 252100Z AUTO 22012G19KT 9SM CLR 05/M07 A3001 RMK SLP194

EXPIRED METARs :
  • 252000Z AUTO 22015KT 9SM CLR 05/M05 A3003 RMK SLP201
  • 251900Z AUTO 21012G18KT 9SM CLR 05/M04 A3006 RMK SLP211

TAF TAF CYKJ
Valid from the 25 at 19:00 until the 26 at 00:00 UTC


251838Z 2519/2524 21010KT P6SM SCT250 RMK FCST BASED ON AUTO OBS. NXT FCST WILL BE ISSUED AT 260945Z
CZEG FIR / North America



MET'MAP, your aeronautical weather chart ! - Copyright ORBIFLY December 2007 - Disclaimer

ORBIFLY MET'MAP TEAM :

Programming & Development : Alexandra Zaïnal
Concept & Development : Baudouin d'Aumeries
Co-Development & Prog : Marc-Olivier Méhu
Technical & hardware support : Manuel Goepfert

Contact : metmap@orbifly.com




SOURCES & CREDITS :

   NOAA       Earth
Advisory